AZA2CV ULLI-LIML
Flight info
| Callsign | AZA2CV |
|---|---|
| Flight time | 3h 18m |
| Altitude | 36000 |
| Route | TURAL1B TURAL L870 RESMO DCT TODNA P863 DEREX DCT TESPO DCT GOSOT Z131 RODEP/N0450F280 Z131 GUDOP/N0460F300 Z717 PODUS/N0450F280 Z130 MAG/N0456F360 M736 GALMA Z94 ERF/N0423F240 Z94 VAGAB Y231 ALAXA/N0456F380 Y231 AMOSA N869 TEDGO/N0458F370 N869 NATOR N850 ODINA |
| Aircraft | A320/M-SDE3FGHIRWY/LB1 |
Departure
| Time | 2026-05-06 19:21 |
|---|---|
| Airport | Pulkovo Airport (ULLI) |
Arrival
| Time | 2026-05-06 22:39 |
|---|---|
| Airport | Milano Linate Airport (LIML) |
| Time | Latitude | Longitude | Altitude | Speed | Heading |
|---|---|---|---|---|---|
| 2026-05-06 18:48 | 59.80211 | 30.26905 | 71 ft | 0 kts | 105° |
| 2026-05-06 19:07 | 59.80213 | 30.26885 | 65 ft | 2 kts | 105° |
| 2026-05-06 19:07 | 59.80218 | 30.26852 | 65 ft | 2 kts | 105° |
| 2026-05-06 19:07 | 59.80217 | 30.26820 | 64 ft | 2 kts | 62° |
| 2026-05-06 19:07 | 59.80207 | 30.26795 | 70 ft | 2 kts | 7° |
| 2026-05-06 19:08 | 59.80206 | 30.26794 | 70 ft | 0 kts | 7° |
| 2026-05-06 19:11 | 59.80216 | 30.26793 | 68 ft | 6 kts | 355° |
| 2026-05-06 19:11 | 59.80278 | 30.26800 | 67 ft | 12 kts | 12° |
| 2026-05-06 19:11 | 59.80360 | 30.26846 | 71 ft | 11 kts | 17° |
| 2026-05-06 19:11 | 59.80385 | 30.26944 | 74 ft | 8 kts | 99° |
| 2026-05-06 19:12 | 59.80372 | 30.27039 | 70 ft | 6 kts | 108° |
| 2026-05-06 19:12 | 59.80360 | 30.27111 | 69 ft | 5 kts | 108° |
| 2026-05-06 19:12 | 59.80352 | 30.27165 | 75 ft | 4 kts | 105° |
| 2026-05-06 19:12 | 59.80343 | 30.27231 | 72 ft | 9 kts | 104° |
| 2026-05-06 19:13 | 59.80313 | 30.27439 | 68 ft | 17 kts | 108° |
| 2026-05-06 19:13 | 59.80285 | 30.27617 | 69 ft | 12 kts | 107° |
| 2026-05-06 19:13 | 59.80264 | 30.27754 | 76 ft | 9 kts | 107° |
| 2026-05-06 19:13 | 59.80248 | 30.27865 | 73 ft | 8 kts | 106° |
| 2026-05-06 19:14 | 59.80236 | 30.27954 | 71 ft | 6 kts | 105° |
| 2026-05-06 19:14 | 59.80223 | 30.28039 | 76 ft | 7 kts | 107° |
| 2026-05-06 19:14 | 59.80208 | 30.28138 | 75 ft | 8 kts | 107° |
| 2026-05-06 19:14 | 59.80189 | 30.28269 | 69 ft | 11 kts | 105° |
| 2026-05-06 19:15 | 59.80165 | 30.28438 | 77 ft | 14 kts | 105° |
| 2026-05-06 19:15 | 59.80134 | 30.28635 | 76 ft | 14 kts | 108° |
| 2026-05-06 19:15 | 59.80109 | 30.28798 | 74 ft | 11 kts | 107° |
| 2026-05-06 19:15 | 59.80089 | 30.28931 | 78 ft | 9 kts | 106° |
| 2026-05-06 19:16 | 59.80073 | 30.29042 | 79 ft | 8 kts | 107° |
| 2026-05-06 19:16 | 59.80059 | 30.29131 | 79 ft | 6 kts | 107° |
| 2026-05-06 19:16 | 59.80049 | 30.29201 | 80 ft | 5 kts | 107° |
| 2026-05-06 19:16 | 59.80037 | 30.29281 | 81 ft | 11 kts | 106° |
| 2026-05-06 19:17 | 59.80017 | 30.29419 | 82 ft | 10 kts | 106° |
| 2026-05-06 19:17 | 59.80000 | 30.29534 | 83 ft | 8 kts | 106° |
| 2026-05-06 19:17 | 59.79986 | 30.29629 | 82 ft | 6 kts | 106° |
| 2026-05-06 19:17 | 59.79975 | 30.29705 | 81 ft | 5 kts | 106° |
| 2026-05-06 19:18 | 59.79965 | 30.29770 | 81 ft | 8 kts | 106° |
| 2026-05-06 19:18 | 59.79944 | 30.29914 | 82 ft | 11 kts | 106° |
| 2026-05-06 19:18 | 59.79951 | 30.30040 | 83 ft | 9 kts | 57° |
| 2026-05-06 19:18 | 59.79986 | 30.30123 | 85 ft | 7 kts | 47° |
| 2026-05-06 19:19 | 59.79997 | 30.30146 | 83 ft | 0 kts | 47° |
| 2026-05-06 19:19 | 59.80035 | 30.30226 | 85 ft | 14 kts | 47° |
| 2026-05-06 19:19 | 59.80117 | 30.30257 | 84 ft | 12 kts | 321° |
| 2026-05-06 19:20 | 59.80159 | 30.30059 | 68 ft | 30 kts | 287° |
| 2026-05-06 19:20 | 59.80290 | 30.29165 | 85 ft | 101 kts | 286° |
| 2026-05-06 19:20 | 59.80541 | 30.27458 | 72 ft | 154 kts | 286° |
| 2026-05-06 19:20 | 59.80866 | 30.25305 | 528 ft | 162 kts | 287° |
| 2026-05-06 19:21 | 59.81194 | 30.23152 | 1234 ft | 163 kts | 288° |
| 2026-05-06 19:21 | 59.81526 | 30.20898 | 1712 ft | 181 kts | 287° |
| 2026-05-06 19:21 | 59.81902 | 30.18338 | 2094 ft | 204 kts | 287° |
| 2026-05-06 19:21 | 59.82324 | 30.15469 | 2456 ft | 229 kts | 287° |
| 2026-05-06 19:22 | 59.82793 | 30.12276 | 2895 ft | 252 kts | 287° |
| 2026-05-06 19:22 | 59.83292 | 30.08866 | 3655 ft | 261 kts | 287° |
| 2026-05-06 19:22 | 59.83629 | 30.06561 | 4267 ft | 263 kts | 287° |
| 2026-05-06 19:22 | 59.84141 | 30.03057 | 5215 ft | 265 kts | 287° |
| 2026-05-06 19:23 | 59.84551 | 29.99474 | 6167 ft | 268 kts | 275° |
| 2026-05-06 19:23 | 59.84378 | 29.95795 | 7074 ft | 269 kts | 254° |
| 2026-05-06 19:23 | 59.83658 | 29.92359 | 7992 ft | 270 kts | 245° |
| 2026-05-06 19:23 | 59.82864 | 29.88978 | 8944 ft | 269 kts | 246° |
| 2026-05-06 19:24 | 59.82073 | 29.85605 | 9900 ft | 270 kts | 246° |
| 2026-05-06 19:24 | 59.81272 | 29.82182 | 10499 ft | 282 kts | 246° |
| 2026-05-06 19:24 | 59.80412 | 29.78502 | 10752 ft | 304 kts | 246° |
| 2026-05-06 19:24 | 59.79506 | 29.74635 | 11359 ft | 311 kts | 246° |
| 2026-05-06 19:25 | 59.78588 | 29.70725 | 12140 ft | 314 kts | 246° |
| 2026-05-06 19:25 | 59.77661 | 29.66785 | 12965 ft | 315 kts | 246° |
| 2026-05-06 19:25 | 59.76745 | 29.62889 | 13771 ft | 316 kts | 246° |
| 2026-05-06 19:25 | 59.75797 | 29.58868 | 14431 ft | 319 kts | 246° |
| 2026-05-06 19:26 | 59.74853 | 29.54864 | 15112 ft | 321 kts | 245° |
| 2026-05-06 19:26 | 59.73904 | 29.50847 | 15824 ft | 322 kts | 245° |
| 2026-05-06 19:26 | 59.72952 | 29.46828 | 16544 ft | 322 kts | 245° |
| 2026-05-06 19:26 | 59.71994 | 29.42802 | 17256 ft | 323 kts | 245° |
| 2026-05-06 19:27 | 59.71047 | 29.38822 | 17989 ft | 324 kts | 245° |
| 2026-05-06 19:27 | 59.70071 | 29.34723 | 18626 ft | 326 kts | 244° |
| 2026-05-06 19:27 | 59.69114 | 29.30707 | 19208 ft | 327 kts | 244° |
| 2026-05-06 19:27 | 59.68138 | 29.26621 | 19796 ft | 329 kts | 244° |
| 2026-05-06 19:28 | 59.67152 | 29.22517 | 20383 ft | 331 kts | 244° |
| 2026-05-06 19:28 | 59.66159 | 29.18400 | 20966 ft | 332 kts | 244° |
| 2026-05-06 19:28 | 59.65162 | 29.14266 | 21555 ft | 334 kts | 244° |
| 2026-05-06 19:28 | 59.64156 | 29.10101 | 22130 ft | 336 kts | 244° |
| 2026-05-06 19:29 | 59.63147 | 29.05917 | 22700 ft | 338 kts | 244° |
| 2026-05-06 19:29 | 59.62174 | 29.01676 | 23249 ft | 340 kts | 249° |
| 2026-05-06 19:29 | 59.61388 | 28.97245 | 23752 ft | 343 kts | 250° |
| 2026-05-06 19:29 | 59.60600 | 28.92790 | 24164 ft | 345 kts | 249° |
| 2026-05-06 19:30 | 59.59800 | 28.88297 | 24518 ft | 349 kts | 249° |
| 2026-05-06 19:30 | 59.58990 | 28.83763 | 24901 ft | 352 kts | 249° |
| 2026-05-06 19:30 | 59.58171 | 28.79189 | 25291 ft | 354 kts | 249° |
| 2026-05-06 19:30 | 59.57348 | 28.74599 | 25685 ft | 356 kts | 249° |
| 2026-05-06 19:31 | 59.56519 | 28.69978 | 26078 ft | 358 kts | 249° |
| 2026-05-06 19:31 | 59.55683 | 28.65336 | 26473 ft | 360 kts | 249° |
| 2026-05-06 19:31 | 59.53988 | 28.55979 | 27203 ft | 364 kts | 249° |
| 2026-05-06 19:32 | 59.53135 | 28.51265 | 27577 ft | 366 kts | 249° |
| 2026-05-06 19:32 | 59.52281 | 28.46528 | 27918 ft | 368 kts | 249° |
| 2026-05-06 19:32 | 59.51425 | 28.41752 | 28267 ft | 370 kts | 249° |
| 2026-05-06 19:32 | 59.50566 | 28.36965 | 28656 ft | 372 kts | 248° |
| 2026-05-06 19:33 | 59.49701 | 28.32152 | 29017 ft | 373 kts | 248° |
| 2026-05-06 19:33 | 59.48831 | 28.27333 | 29348 ft | 375 kts | 248° |
| 2026-05-06 19:33 | 59.47953 | 28.22488 | 29666 ft | 377 kts | 248° |
| 2026-05-06 19:33 | 59.47068 | 28.17623 | 29974 ft | 378 kts | 248° |
| 2026-05-06 19:34 | 59.46177 | 28.12739 | 30196 ft | 381 kts | 248° |
| 2026-05-06 19:34 | 59.45274 | 28.07816 | 30405 ft | 384 kts | 247° |
| 2026-05-06 19:34 | 59.44344 | 28.02882 | 30639 ft | 385 kts | 247° |
| 2026-05-06 19:34 | 59.43395 | 27.97953 | 30873 ft | 387 kts | 246° |
| 2026-05-06 19:35 | 59.42433 | 27.93000 | 31103 ft | 388 kts | 246° |
| 2026-05-06 19:35 | 59.41479 | 27.88108 | 31333 ft | 389 kts | 246° |
| 2026-05-06 19:35 | 59.40511 | 27.83146 | 31636 ft | 388 kts | 246° |
| 2026-05-06 19:35 | 59.39547 | 27.78203 | 31958 ft | 387 kts | 246° |
| 2026-05-06 19:36 | 59.38587 | 27.73274 | 32269 ft | 386 kts | 246° |
| 2026-05-06 19:36 | 59.37628 | 27.68354 | 32594 ft | 386 kts | 246° |
| 2026-05-06 19:36 | 59.36670 | 27.63447 | 32906 ft | 385 kts | 246° |
| 2026-05-06 19:36 | 59.35713 | 27.58557 | 33222 ft | 384 kts | 246° |
| 2026-05-06 19:37 | 59.34751 | 27.53676 | 33529 ft | 383 kts | 246° |
| 2026-05-06 19:37 | 59.33787 | 27.48808 | 33830 ft | 382 kts | 246° |
| 2026-05-06 19:37 | 59.32831 | 27.43948 | 34162 ft | 382 kts | 246° |
| 2026-05-06 19:37 | 59.31884 | 27.39090 | 34364 ft | 382 kts | 246° |
| 2026-05-06 19:38 | 59.30936 | 27.34210 | 34541 ft | 384 kts | 246° |
| 2026-05-06 19:38 | 59.29982 | 27.29317 | 34734 ft | 385 kts | 246° |
| 2026-05-06 19:38 | 59.29024 | 27.24425 | 34930 ft | 386 kts | 246° |
| 2026-05-06 19:38 | 59.28063 | 27.19520 | 35124 ft | 386 kts | 246° |
| 2026-05-06 19:39 | 59.27097 | 27.14614 | 35318 ft | 387 kts | 246° |
| 2026-05-06 19:39 | 59.26138 | 27.09764 | 35499 ft | 388 kts | 247° |
| 2026-05-06 19:39 | 59.25165 | 27.04849 | 35679 ft | 388 kts | 247° |
| 2026-05-06 19:39 | 59.24190 | 26.99930 | 35856 ft | 389 kts | 247° |
| 2026-05-06 19:40 | 59.23210 | 26.95001 | 35994 ft | 389 kts | 247° |
| 2026-05-06 19:40 | 59.22233 | 26.90094 | 36029 ft | 387 kts | 247° |
| 2026-05-06 19:40 | 59.20267 | 26.80256 | 36024 ft | 386 kts | 247° |
| 2026-05-06 19:41 | 59.18312 | 26.70577 | 36027 ft | 386 kts | 246° |
| 2026-05-06 19:41 | 59.16338 | 26.60846 | 36013 ft | 387 kts | 246° |
| 2026-05-06 19:42 | 59.14358 | 26.51076 | 36025 ft | 388 kts | 246° |
| 2026-05-06 19:42 | 59.12369 | 26.41291 | 36054 ft | 389 kts | 246° |
| 2026-05-06 19:43 | 59.10355 | 26.31505 | 36044 ft | 389 kts | 246° |
| 2026-05-06 19:43 | 59.08335 | 26.21738 | 36039 ft | 390 kts | 246° |
| 2026-05-06 19:44 | 59.06318 | 26.12009 | 36037 ft | 390 kts | 246° |
| 2026-05-06 19:44 | 59.04286 | 26.02249 | 36031 ft | 390 kts | 246° |
| 2026-05-06 19:45 | 59.02249 | 25.92486 | 36029 ft | 390 kts | 246° |
| 2026-05-06 19:45 | 59.00194 | 25.82740 | 36029 ft | 390 kts | 246° |
| 2026-05-06 19:46 | 58.98130 | 25.72996 | 36032 ft | 390 kts | 246° |
| 2026-05-06 19:46 | 58.96064 | 25.63269 | 36029 ft | 390 kts | 246° |
| 2026-05-06 19:47 | 58.93994 | 25.53554 | 36030 ft | 390 kts | 245° |
| 2026-05-06 19:47 | 58.91914 | 25.43848 | 36032 ft | 390 kts | 245° |
| 2026-05-06 19:48 | 58.89828 | 25.34144 | 36025 ft | 390 kts | 245° |
| 2026-05-06 19:48 | 58.87739 | 25.24466 | 36025 ft | 390 kts | 245° |
| 2026-05-06 19:49 | 58.85636 | 25.14799 | 36001 ft | 390 kts | 245° |
| 2026-05-06 19:49 | 58.83518 | 25.05138 | 36005 ft | 391 kts | 245° |
| 2026-05-06 19:50 | 58.81398 | 24.95473 | 36008 ft | 391 kts | 245° |
| 2026-05-06 19:50 | 58.79272 | 24.85804 | 36005 ft | 392 kts | 245° |
| 2026-05-06 19:51 | 58.77133 | 24.76148 | 36010 ft | 392 kts | 245° |
| 2026-05-06 19:51 | 58.75000 | 24.66567 | 36038 ft | 392 kts | 245° |
| 2026-05-06 19:52 | 58.72843 | 24.56922 | 36014 ft | 392 kts | 245° |
| 2026-05-06 19:52 | 58.70677 | 24.47281 | 36003 ft | 393 kts | 244° |
| 2026-05-06 19:53 | 58.68504 | 24.37628 | 35982 ft | 393 kts | 244° |
| 2026-05-06 19:53 | 58.66328 | 24.27976 | 35984 ft | 394 kts | 244° |
| 2026-05-06 19:54 | 58.64137 | 24.18323 | 35987 ft | 394 kts | 244° |
| 2026-05-06 19:54 | 58.61932 | 24.08689 | 35990 ft | 394 kts | 244° |
| 2026-05-06 19:55 | 58.59720 | 23.99055 | 35983 ft | 394 kts | 244° |
| 2026-05-06 19:55 | 58.57503 | 23.89437 | 35988 ft | 395 kts | 244° |
| 2026-05-06 19:56 | 58.55276 | 23.79820 | 35986 ft | 395 kts | 244° |
| 2026-05-06 19:56 | 58.53041 | 23.70221 | 35981 ft | 395 kts | 244° |
| 2026-05-06 19:57 | 58.50790 | 23.60608 | 35978 ft | 396 kts | 244° |
| 2026-05-06 19:57 | 58.48526 | 23.50984 | 35976 ft | 397 kts | 244° |
| 2026-05-06 19:58 | 58.46255 | 23.41363 | 35973 ft | 397 kts | 244° |
| 2026-05-06 19:58 | 58.43977 | 23.31738 | 35975 ft | 398 kts | 244° |
| 2026-05-06 19:59 | 58.41690 | 23.22129 | 35984 ft | 398 kts | 244° |
| 2026-05-06 19:59 | 58.39389 | 23.12518 | 35987 ft | 398 kts | 244° |
| 2026-05-06 20:00 | 58.37101 | 23.02978 | 35972 ft | 398 kts | 244° |
| 2026-05-06 20:00 | 58.34793 | 22.93382 | 35980 ft | 399 kts | 244° |
| 2026-05-06 20:01 | 58.32476 | 22.83792 | 36002 ft | 399 kts | 244° |
| 2026-05-06 20:01 | 58.30137 | 22.74194 | 35996 ft | 400 kts | 244° |
| 2026-05-06 20:02 | 58.27791 | 22.64599 | 35997 ft | 400 kts | 244° |
| 2026-05-06 20:02 | 58.25432 | 22.55005 | 35998 ft | 401 kts | 243° |
| 2026-05-06 20:03 | 58.23066 | 22.45422 | 35990 ft | 401 kts | 243° |
| 2026-05-06 20:03 | 58.20698 | 22.35842 | 35992 ft | 401 kts | 243° |
| 2026-05-06 20:04 | 58.18323 | 22.26274 | 35975 ft | 401 kts | 243° |
| 2026-05-06 20:04 | 58.15942 | 22.16731 | 35983 ft | 401 kts | 243° |
| 2026-05-06 20:05 | 58.13552 | 22.07192 | 35984 ft | 401 kts | 243° |
| 2026-05-06 20:05 | 58.11144 | 21.97673 | 36007 ft | 401 kts | 243° |
| 2026-05-06 20:06 | 58.08754 | 21.88238 | 36001 ft | 401 kts | 243° |
| 2026-05-06 20:06 | 58.06353 | 21.78739 | 35996 ft | 401 kts | 243° |
| 2026-05-06 20:07 | 58.03937 | 21.69257 | 35994 ft | 401 kts | 243° |
| 2026-05-06 20:07 | 58.01501 | 21.59797 | 35971 ft | 401 kts | 243° |
| 2026-05-06 20:08 | 57.99086 | 21.50306 | 35974 ft | 402 kts | 244° |
| 2026-05-06 20:08 | 57.96792 | 21.40701 | 35977 ft | 402 kts | 245° |
| 2026-05-06 20:09 | 57.94524 | 21.31084 | 35980 ft | 402 kts | 244° |
| 2026-05-06 20:09 | 57.92209 | 21.21501 | 35982 ft | 402 kts | 244° |
| 2026-05-06 20:10 | 57.89877 | 21.11949 | 36008 ft | 402 kts | 244° |
| 2026-05-06 20:10 | 57.87945 | 21.04014 | 36008 ft | 401 kts | 244° |
| 2026-05-06 20:11 | 57.85616 | 20.94491 | 35983 ft | 401 kts | 244° |
| 2026-05-06 20:11 | 57.83278 | 20.84980 | 35988 ft | 401 kts | 244° |
| 2026-05-06 20:12 | 57.80928 | 20.75473 | 35987 ft | 401 kts | 244° |
| 2026-05-06 20:12 | 57.78572 | 20.65975 | 35986 ft | 402 kts | 244° |
| 2026-05-06 20:13 | 57.76203 | 20.56489 | 35990 ft | 402 kts | 244° |
| 2026-05-06 20:13 | 57.73840 | 20.47069 | 35995 ft | 402 kts | 244° |
| 2026-05-06 20:14 | 57.71457 | 20.37599 | 36019 ft | 402 kts | 244° |
| 2026-05-06 20:14 | 57.69072 | 20.28160 | 36016 ft | 401 kts | 244° |
| 2026-05-06 20:15 | 57.66409 | 20.19021 | 35991 ft | 400 kts | 233° |
| 2026-05-06 20:15 | 57.62964 | 20.10838 | 35988 ft | 400 kts | 232° |
| 2026-05-06 20:16 | 57.59511 | 20.02684 | 35989 ft | 401 kts | 232° |
| 2026-05-06 20:16 | 57.56056 | 19.94533 | 35983 ft | 401 kts | 232° |
| 2026-05-06 20:17 | 57.52593 | 19.86391 | 35982 ft | 401 kts | 232° |
| 2026-05-06 20:17 | 57.49148 | 19.78324 | 35986 ft | 401 kts | 232° |
| 2026-05-06 20:18 | 57.45671 | 19.70213 | 35964 ft | 401 kts | 232° |
| 2026-05-06 20:18 | 57.42186 | 19.62118 | 35971 ft | 402 kts | 232° |
| 2026-05-06 20:19 | 57.38692 | 19.54022 | 35979 ft | 402 kts | 232° |
| 2026-05-06 20:19 | 57.35194 | 19.45936 | 35984 ft | 402 kts | 232° |
| 2026-05-06 20:20 | 57.31692 | 19.37864 | 36014 ft | 402 kts | 231° |
| 2026-05-06 20:20 | 57.28180 | 19.29814 | 36010 ft | 402 kts | 231° |
| 2026-05-06 20:21 | 57.24669 | 19.21790 | 36007 ft | 402 kts | 231° |
| 2026-05-06 20:21 | 57.21155 | 19.13774 | 36002 ft | 401 kts | 231° |
| 2026-05-06 20:22 | 57.17638 | 19.05785 | 36001 ft | 401 kts | 231° |
| 2026-05-06 20:22 | 57.14117 | 18.97812 | 35998 ft | 401 kts | 231° |
| 2026-05-06 20:23 | 57.10590 | 18.89867 | 35994 ft | 401 kts | 231° |
| 2026-05-06 20:23 | 57.07079 | 18.81989 | 35992 ft | 401 kts | 231° |
| 2026-05-06 20:24 | 57.03545 | 18.74067 | 35968 ft | 401 kts | 231° |
| 2026-05-06 20:24 | 57.00000 | 18.66153 | 35976 ft | 401 kts | 231° |
| 2026-05-06 20:25 | 56.96451 | 18.58238 | 35973 ft | 402 kts | 231° |
| 2026-05-06 20:25 | 56.92893 | 18.50333 | 35994 ft | 402 kts | 231° |
| 2026-05-06 20:26 | 56.89326 | 18.42454 | 35995 ft | 402 kts | 231° |
| 2026-05-06 20:26 | 56.85753 | 18.34579 | 35993 ft | 402 kts | 231° |
| 2026-05-06 20:27 | 56.82179 | 18.26724 | 35983 ft | 402 kts | 230° |
| 2026-05-06 20:27 | 56.78595 | 18.18869 | 35982 ft | 403 kts | 230° |
| 2026-05-06 20:28 | 56.74998 | 18.11025 | 35986 ft | 403 kts | 230° |
| 2026-05-06 20:28 | 56.71397 | 18.03196 | 35986 ft | 403 kts | 230° |
| 2026-05-06 20:29 | 56.67806 | 17.95420 | 35991 ft | 404 kts | 230° |
| 2026-05-06 20:29 | 56.64189 | 17.87606 | 35993 ft | 404 kts | 230° |
| 2026-05-06 20:30 | 56.58759 | 17.75915 | 35978 ft | 404 kts | 230° |
| 2026-05-06 20:31 | 56.55130 | 17.68123 | 35978 ft | 404 kts | 230° |
| 2026-05-06 20:31 | 56.51494 | 17.60354 | 35979 ft | 404 kts | 230° |
| 2026-05-06 20:32 | 56.47872 | 17.52630 | 35999 ft | 404 kts | 230° |
| 2026-05-06 20:32 | 56.44225 | 17.44890 | 35993 ft | 404 kts | 230° |
| 2026-05-06 20:33 | 56.40567 | 17.37164 | 35977 ft | 404 kts | 230° |
| 2026-05-06 20:33 | 56.36911 | 17.29450 | 35975 ft | 404 kts | 230° |
| 2026-05-06 20:34 | 56.33169 | 17.21869 | 35976 ft | 405 kts | 223° |
| 2026-05-06 20:34 | 56.28991 | 17.15073 | 35973 ft | 405 kts | 223° |
| 2026-05-06 20:35 | 56.24816 | 17.08288 | 35970 ft | 404 kts | 223° |
| 2026-05-06 20:35 | 56.20644 | 17.01512 | 35968 ft | 404 kts | 223° |
| 2026-05-06 20:36 | 56.16467 | 16.94748 | 35962 ft | 404 kts | 223° |
| 2026-05-06 20:36 | 56.12281 | 16.88003 | 35964 ft | 404 kts | 223° |
| 2026-05-06 20:37 | 56.08088 | 16.81284 | 35965 ft | 404 kts | 223° |
| 2026-05-06 20:37 | 56.03894 | 16.74575 | 35968 ft | 404 kts | 223° |
| 2026-05-06 20:38 | 55.99698 | 16.67870 | 35963 ft | 404 kts | 223° |
| 2026-05-06 20:38 | 55.95504 | 16.61192 | 35945 ft | 404 kts | 223° |
| 2026-05-06 20:39 | 55.91298 | 16.54535 | 35950 ft | 404 kts | 223° |
| 2026-05-06 20:39 | 55.87095 | 16.47887 | 35954 ft | 404 kts | 223° |
| 2026-05-06 20:40 | 55.82883 | 16.41244 | 35961 ft | 404 kts | 223° |
| 2026-05-06 20:40 | 55.78669 | 16.34629 | 35968 ft | 404 kts | 223° |
| 2026-05-06 20:41 | 55.74486 | 16.28068 | 35947 ft | 404 kts | 223° |
| 2026-05-06 20:41 | 55.70249 | 16.21435 | 35952 ft | 404 kts | 223° |
| 2026-05-06 20:42 | 55.66057 | 16.14900 | 35953 ft | 404 kts | 223° |
| 2026-05-06 20:42 | 55.61832 | 16.08337 | 35956 ft | 404 kts | 222° |
| 2026-05-06 20:43 | 55.57600 | 16.01792 | 35962 ft | 404 kts | 222° |
| 2026-05-06 20:43 | 55.53372 | 15.95268 | 35963 ft | 404 kts | 222° |
| 2026-05-06 20:44 | 55.49140 | 15.88750 | 35957 ft | 404 kts | 222° |
| 2026-05-06 20:44 | 55.44899 | 15.82242 | 35960 ft | 404 kts | 222° |
| 2026-05-06 20:45 | 55.40657 | 15.75748 | 35962 ft | 404 kts | 222° |
| 2026-05-06 20:45 | 55.36415 | 15.69269 | 35957 ft | 404 kts | 222° |
| 2026-05-06 20:46 | 55.32165 | 15.62812 | 35978 ft | 404 kts | 222° |
| 2026-05-06 20:46 | 55.27907 | 15.56364 | 35959 ft | 404 kts | 222° |
| 2026-05-06 20:47 | 55.23651 | 15.49918 | 35956 ft | 404 kts | 222° |
| 2026-05-06 20:47 | 55.19396 | 15.43487 | 35956 ft | 404 kts | 222° |
| 2026-05-06 20:48 | 55.15131 | 15.37071 | 35961 ft | 404 kts | 221° |
| 2026-05-06 20:48 | 55.10888 | 15.30719 | 35956 ft | 404 kts | 221° |
| 2026-05-06 20:49 | 55.06616 | 15.24348 | 35963 ft | 404 kts | 221° |
| 2026-05-06 20:49 | 55.02338 | 15.17973 | 35957 ft | 404 kts | 221° |
| 2026-05-06 20:50 | 54.98061 | 15.11610 | 35957 ft | 404 kts | 221° |
| 2026-05-06 20:50 | 54.93781 | 15.05256 | 35956 ft | 404 kts | 221° |
| 2026-05-06 20:51 | 54.89496 | 14.98929 | 35965 ft | 404 kts | 221° |
| 2026-05-06 20:51 | 54.85203 | 14.92619 | 35949 ft | 404 kts | 221° |
| 2026-05-06 20:52 | 54.80914 | 14.86324 | 35967 ft | 404 kts | 221° |
| 2026-05-06 20:52 | 54.76779 | 14.79840 | 35964 ft | 403 kts | 224° |
| 2026-05-06 20:53 | 54.72755 | 14.73072 | 35976 ft | 403 kts | 225° |
| 2026-05-06 20:53 | 54.68729 | 14.66319 | 35955 ft | 403 kts | 224° |
| 2026-05-06 20:54 | 54.64658 | 14.59642 | 35951 ft | 404 kts | 224° |
| 2026-05-06 20:54 | 54.60571 | 14.52999 | 35950 ft | 403 kts | 224° |
| 2026-05-06 20:55 | 54.56487 | 14.46372 | 35958 ft | 403 kts | 224° |
| 2026-05-06 20:55 | 54.52405 | 14.39767 | 35954 ft | 402 kts | 224° |
| 2026-05-06 20:56 | 54.48319 | 14.33177 | 35942 ft | 402 kts | 223° |
| 2026-05-06 20:56 | 54.43627 | 14.27983 | 35940 ft | 405 kts | 204° |
| 2026-05-06 20:57 | 54.38372 | 14.24456 | 35923 ft | 405 kts | 203° |
| 2026-05-06 20:57 | 54.33154 | 14.20957 | 35927 ft | 405 kts | 203° |
| 2026-05-06 20:58 | 54.27906 | 14.17437 | 35928 ft | 405 kts | 204° |
| 2026-05-06 20:58 | 54.22652 | 14.13917 | 35919 ft | 405 kts | 203° |
| 2026-05-06 20:59 | 54.17388 | 14.10409 | 35923 ft | 405 kts | 203° |
| 2026-05-06 20:59 | 54.13045 | 14.07422 | 35913 ft | 405 kts | 205° |
| 2026-05-06 21:00 | 54.07901 | 14.03509 | 35916 ft | 405 kts | 206° |
| 2026-05-06 21:00 | 54.02776 | 13.99531 | 35919 ft | 405 kts | 206° |
| 2026-05-06 21:01 | 53.97632 | 13.95621 | 35922 ft | 405 kts | 206° |
| 2026-05-06 21:01 | 53.92475 | 13.91763 | 35900 ft | 405 kts | 205° |
| 2026-05-06 21:02 | 53.87319 | 13.87911 | 35905 ft | 405 kts | 206° |
| 2026-05-06 21:02 | 53.82150 | 13.84053 | 35901 ft | 405 kts | 205° |
| 2026-05-06 21:03 | 53.76982 | 13.80221 | 35902 ft | 406 kts | 205° |
| 2026-05-06 21:03 | 53.71885 | 13.76165 | 35903 ft | 405 kts | 208° |
| 2026-05-06 21:04 | 53.66918 | 13.71808 | 35887 ft | 405 kts | 209° |
| 2026-05-06 21:04 | 53.61919 | 13.67428 | 35892 ft | 405 kts | 208° |
| 2026-05-06 21:05 | 53.56887 | 13.63148 | 35895 ft | 405 kts | 208° |
| 2026-05-06 21:05 | 53.51847 | 13.58911 | 35895 ft | 405 kts | 208° |
| 2026-05-06 21:06 | 53.46831 | 13.54603 | 35886 ft | 405 kts | 209° |
| 2026-05-06 21:06 | 53.41826 | 13.50257 | 35907 ft | 405 kts | 209° |
| 2026-05-06 21:07 | 53.36814 | 13.45925 | 35896 ft | 405 kts | 209° |
| 2026-05-06 21:07 | 53.31799 | 13.41612 | 35894 ft | 405 kts | 208° |
| 2026-05-06 21:08 | 53.26776 | 13.37310 | 35890 ft | 406 kts | 208° |
| 2026-05-06 21:08 | 53.21750 | 13.33023 | 35880 ft | 406 kts | 208° |
| 2026-05-06 21:09 | 53.16723 | 13.28740 | 35877 ft | 406 kts | 208° |
| 2026-05-06 21:09 | 53.11683 | 13.24458 | 35879 ft | 406 kts | 208° |
| 2026-05-06 21:10 | 53.06705 | 13.20030 | 35877 ft | 405 kts | 216° |
| 2026-05-06 21:10 | 53.02757 | 13.13452 | 35878 ft | 404 kts | 236° |
| 2026-05-06 21:11 | 53.00472 | 13.04948 | 35861 ft | 406 kts | 249° |
| 2026-05-06 21:11 | 52.98647 | 12.96140 | 35867 ft | 406 kts | 249° |
| 2026-05-06 21:12 | 52.96564 | 12.87465 | 35874 ft | 404 kts | 238° |
| 2026-05-06 21:12 | 52.92965 | 12.80403 | 35875 ft | 403 kts | 219° |
| 2026-05-06 21:13 | 52.88235 | 12.75410 | 35872 ft | 404 kts | 212° |
| 2026-05-06 21:13 | 52.83414 | 12.70640 | 35866 ft | 404 kts | 212° |
| 2026-05-06 21:14 | 52.78584 | 12.65853 | 35881 ft | 405 kts | 212° |
| 2026-05-06 21:14 | 52.73752 | 12.61066 | 35869 ft | 405 kts | 212° |
| 2026-05-06 21:15 | 52.68917 | 12.56294 | 35873 ft | 405 kts | 212° |
| 2026-05-06 21:15 | 52.64071 | 12.51530 | 35864 ft | 405 kts | 212° |
| 2026-05-06 21:16 | 52.59219 | 12.46768 | 35867 ft | 407 kts | 212° |
| 2026-05-06 21:16 | 52.56779 | 12.44377 | 36014 ft | 410 kts | 212° |
| 2026-05-06 21:16 | 52.54330 | 12.41978 | 36213 ft | 410 kts | 212° |
| 2026-05-06 21:16 | 52.51908 | 12.39609 | 36425 ft | 411 kts | 212° |
| 2026-05-06 21:17 | 52.49422 | 12.37185 | 36634 ft | 411 kts | 212° |
| 2026-05-06 21:17 | 52.46966 | 12.34793 | 36846 ft | 411 kts | 212° |
| 2026-05-06 21:17 | 52.44541 | 12.32433 | 37047 ft | 411 kts | 212° |
| 2026-05-06 21:17 | 52.42073 | 12.30039 | 37250 ft | 411 kts | 212° |
| 2026-05-06 21:18 | 52.39618 | 12.27647 | 37450 ft | 411 kts | 214° |
| 2026-05-06 21:18 | 52.37297 | 12.24939 | 37647 ft | 410 kts | 217° |
| 2026-05-06 21:18 | 52.35003 | 12.22143 | 37821 ft | 410 kts | 217° |
| 2026-05-06 21:19 | 52.30419 | 12.16562 | 37858 ft | 410 kts | 217° |
| 2026-05-06 21:19 | 52.25829 | 12.11014 | 37856 ft | 410 kts | 217° |
| 2026-05-06 21:20 | 52.21241 | 12.05486 | 37857 ft | 410 kts | 217° |
| 2026-05-06 21:20 | 52.16647 | 11.99961 | 37856 ft | 410 kts | 217° |
| 2026-05-06 21:21 | 52.11948 | 11.94710 | 37849 ft | 411 kts | 205° |
| 2026-05-06 21:21 | 52.06470 | 11.91920 | 37850 ft | 413 kts | 198° |
| 2026-05-06 21:22 | 52.00932 | 11.89377 | 37845 ft | 414 kts | 198° |
| 2026-05-06 21:22 | 51.95418 | 11.86868 | 37844 ft | 414 kts | 198° |
| 2026-05-06 21:23 | 51.89869 | 11.84349 | 37844 ft | 414 kts | 198° |
| 2026-05-06 21:23 | 51.84322 | 11.81829 | 37853 ft | 413 kts | 198° |
| 2026-05-06 21:24 | 51.78795 | 11.79317 | 37857 ft | 413 kts | 198° |
| 2026-05-06 21:24 | 51.73270 | 11.76817 | 37857 ft | 412 kts | 197° |
| 2026-05-06 21:25 | 51.67747 | 11.74331 | 37848 ft | 412 kts | 197° |
| 2026-05-06 21:25 | 51.62230 | 11.71849 | 37852 ft | 411 kts | 197° |
| 2026-05-06 21:26 | 51.56723 | 11.69364 | 37851 ft | 411 kts | 197° |
| 2026-05-06 21:26 | 51.51215 | 11.66893 | 37852 ft | 411 kts | 197° |
| 2026-05-06 21:27 | 51.45706 | 11.64433 | 37838 ft | 411 kts | 197° |
| 2026-05-06 21:27 | 51.40195 | 11.61972 | 37839 ft | 411 kts | 197° |
| 2026-05-06 21:28 | 51.34718 | 11.59526 | 37841 ft | 411 kts | 197° |
| 2026-05-06 21:28 | 51.29214 | 11.57083 | 37842 ft | 411 kts | 197° |
| 2026-05-06 21:29 | 51.23700 | 11.54659 | 37822 ft | 411 kts | 197° |
| 2026-05-06 21:29 | 51.18177 | 11.52222 | 37819 ft | 412 kts | 196° |
| 2026-05-06 21:30 | 51.12650 | 11.49781 | 37823 ft | 413 kts | 196° |
| 2026-05-06 21:30 | 51.07105 | 11.47346 | 37828 ft | 413 kts | 196° |
| 2026-05-06 21:31 | 51.01562 | 11.44928 | 37831 ft | 413 kts | 196° |
| 2026-05-06 21:31 | 50.96008 | 11.42507 | 37821 ft | 415 kts | 196° |
| 2026-05-06 21:32 | 50.90437 | 11.40072 | 37826 ft | 416 kts | 196° |
| 2026-05-06 21:32 | 50.82064 | 11.36422 | 37833 ft | 417 kts | 196° |
| 2026-05-06 21:33 | 50.76471 | 11.34000 | 37822 ft | 417 kts | 197° |
| 2026-05-06 21:33 | 50.70864 | 11.31580 | 37828 ft | 418 kts | 197° |
| 2026-05-06 21:34 | 50.65291 | 11.29175 | 37830 ft | 419 kts | 197° |
| 2026-05-06 21:34 | 50.59629 | 11.26740 | 37834 ft | 419 kts | 197° |
| 2026-05-06 21:35 | 50.54035 | 11.24350 | 37841 ft | 419 kts | 196° |
| 2026-05-06 21:35 | 50.48409 | 11.21951 | 37845 ft | 419 kts | 197° |
| 2026-05-06 21:36 | 50.42778 | 11.19543 | 37844 ft | 419 kts | 197° |
| 2026-05-06 21:36 | 50.37151 | 11.17136 | 37845 ft | 419 kts | 197° |
| 2026-05-06 21:37 | 50.31526 | 11.14735 | 37847 ft | 419 kts | 197° |
| 2026-05-06 21:37 | 50.25897 | 11.12349 | 37850 ft | 419 kts | 197° |
| 2026-05-06 21:38 | 50.20268 | 11.09978 | 37851 ft | 419 kts | 197° |
| 2026-05-06 21:38 | 50.14633 | 11.07603 | 37852 ft | 419 kts | 197° |
| 2026-05-06 21:39 | 50.08993 | 11.05240 | 37859 ft | 419 kts | 197° |
| 2026-05-06 21:39 | 50.03408 | 11.02897 | 37859 ft | 418 kts | 197° |
| 2026-05-06 21:40 | 49.97783 | 11.00538 | 37868 ft | 418 kts | 197° |
| 2026-05-06 21:40 | 49.92173 | 10.98190 | 37865 ft | 418 kts | 197° |
| 2026-05-06 21:41 | 49.86565 | 10.95843 | 37862 ft | 417 kts | 197° |
| 2026-05-06 21:41 | 49.80969 | 10.93518 | 37873 ft | 416 kts | 196° |
| 2026-05-06 21:42 | 49.75380 | 10.91215 | 37877 ft | 415 kts | 197° |
| 2026-05-06 21:42 | 49.69801 | 10.88905 | 37880 ft | 415 kts | 197° |
| 2026-05-06 21:43 | 49.64229 | 10.86599 | 37885 ft | 414 kts | 197° |
| 2026-05-06 21:43 | 49.58668 | 10.84307 | 37887 ft | 413 kts | 196° |
| 2026-05-06 21:44 | 49.53159 | 10.81832 | 37883 ft | 411 kts | 204° |
| 2026-05-06 21:44 | 49.48421 | 10.77129 | 37905 ft | 410 kts | 223° |
| 2026-05-06 21:45 | 49.44438 | 10.70838 | 37897 ft | 411 kts | 224° |
| 2026-05-06 21:45 | 49.40432 | 10.64551 | 37893 ft | 411 kts | 224° |
| 2026-05-06 21:46 | 49.36482 | 10.58212 | 37891 ft | 411 kts | 225° |
| 2026-05-06 21:46 | 49.32533 | 10.51860 | 37891 ft | 411 kts | 224° |
| 2026-05-06 21:47 | 49.28491 | 10.45654 | 37891 ft | 411 kts | 223° |
| 2026-05-06 21:47 | 49.24412 | 10.39505 | 37890 ft | 411 kts | 223° |
| 2026-05-06 21:48 | 49.21038 | 10.34363 | 37908 ft | 411 kts | 224° |
| 2026-05-06 21:48 | 49.17026 | 10.28141 | 37893 ft | 411 kts | 224° |
| 2026-05-06 21:49 | 49.13155 | 10.21720 | 37895 ft | 412 kts | 230° |
| 2026-05-06 21:49 | 49.09573 | 10.14879 | 37889 ft | 413 kts | 229° |
| 2026-05-06 21:50 | 49.05961 | 10.08047 | 37870 ft | 414 kts | 229° |
| 2026-05-06 21:50 | 49.02338 | 10.01221 | 37871 ft | 415 kts | 229° |
| 2026-05-06 21:51 | 48.98706 | 9.94385 | 37876 ft | 415 kts | 229° |
| 2026-05-06 21:51 | 48.95069 | 9.87547 | 37881 ft | 416 kts | 229° |
| 2026-05-06 21:52 | 48.91454 | 9.80758 | 37883 ft | 416 kts | 229° |
| 2026-05-06 21:52 | 48.87800 | 9.73933 | 37884 ft | 416 kts | 229° |
| 2026-05-06 21:53 | 48.84138 | 9.67116 | 37887 ft | 416 kts | 229° |
| 2026-05-06 21:53 | 48.80479 | 9.60293 | 37891 ft | 417 kts | 229° |
| 2026-05-06 21:54 | 48.76799 | 9.53465 | 37887 ft | 418 kts | 229° |
| 2026-05-06 21:54 | 48.73096 | 9.46641 | 37887 ft | 420 kts | 229° |
| 2026-05-06 21:55 | 48.69391 | 9.39799 | 37899 ft | 420 kts | 229° |
| 2026-05-06 21:55 | 48.65669 | 9.32945 | 38106 ft | 422 kts | 229° |
| 2026-05-06 21:56 | 48.63801 | 9.29519 | 38308 ft | 422 kts | 229° |
| 2026-05-06 21:56 | 48.61935 | 9.26098 | 38507 ft | 422 kts | 229° |
| 2026-05-06 21:56 | 48.60130 | 9.22608 | 38668 ft | 422 kts | 231° |
| 2026-05-06 21:56 | 48.58401 | 9.19015 | 38820 ft | 423 kts | 233° |
| 2026-05-06 21:57 | 48.55052 | 9.11695 | 38906 ft | 424 kts | 234° |
| 2026-05-06 21:57 | 48.51674 | 9.04353 | 38899 ft | 427 kts | 233° |
| 2026-05-06 21:58 | 48.48229 | 8.97051 | 38906 ft | 427 kts | 233° |
| 2026-05-06 21:58 | 48.44777 | 8.89826 | 38915 ft | 427 kts | 232° |
| 2026-05-06 21:59 | 48.41304 | 8.82564 | 38916 ft | 427 kts | 233° |
| 2026-05-06 21:59 | 48.37832 | 8.75307 | 38926 ft | 428 kts | 232° |
| 2026-05-06 22:00 | 48.34349 | 8.68050 | 38933 ft | 428 kts | 232° |
| 2026-05-06 22:00 | 48.30868 | 8.60801 | 38941 ft | 428 kts | 232° |
| 2026-05-06 22:01 | 48.27385 | 8.53544 | 38943 ft | 429 kts | 233° |
| 2026-05-06 22:01 | 48.23880 | 8.46292 | 38946 ft | 429 kts | 233° |
| 2026-05-06 22:02 | 48.20203 | 8.39251 | 38945 ft | 428 kts | 222° |
| 2026-05-06 22:02 | 48.17875 | 8.36583 | 38945 ft | 427 kts | 210° |
| 2026-05-06 22:02 | 48.15179 | 8.34752 | 38950 ft | 426 kts | 197° |
| 2026-05-06 22:03 | 48.12267 | 8.33879 | 38945 ft | 428 kts | 185° |
| 2026-05-06 22:03 | 48.09291 | 8.34006 | 38942 ft | 430 kts | 173° |
| 2026-05-06 22:03 | 48.03374 | 8.35441 | 38940 ft | 431 kts | 173° |
| 2026-05-06 22:04 | 47.97441 | 8.36872 | 38947 ft | 432 kts | 173° |
| 2026-05-06 22:04 | 47.91493 | 8.38303 | 38948 ft | 433 kts | 173° |
| 2026-05-06 22:05 | 47.85547 | 8.39723 | 38959 ft | 433 kts | 173° |
| 2026-05-06 22:05 | 47.79597 | 8.41149 | 38965 ft | 433 kts | 173° |
| 2026-05-06 22:06 | 47.73647 | 8.42569 | 38967 ft | 433 kts | 173° |
| 2026-05-06 22:06 | 47.67727 | 8.43956 | 38964 ft | 433 kts | 174° |
| 2026-05-06 22:07 | 47.61744 | 8.44939 | 38977 ft | 432 kts | 176° |
| 2026-05-06 22:07 | 47.55751 | 8.45697 | 38985 ft | 432 kts | 177° |
| 2026-05-06 22:08 | 47.49754 | 8.46500 | 38991 ft | 433 kts | 176° |
| 2026-05-06 22:08 | 47.43763 | 8.47375 | 38981 ft | 433 kts | 176° |
| 2026-05-06 22:09 | 47.37753 | 8.48282 | 38982 ft | 434 kts | 176° |
| 2026-05-06 22:09 | 47.31747 | 8.49179 | 38959 ft | 434 kts | 176° |
| 2026-05-06 22:10 | 47.25734 | 8.50060 | 38961 ft | 434 kts | 177° |
| 2026-05-06 22:10 | 47.19713 | 8.50926 | 38967 ft | 434 kts | 177° |
| 2026-05-06 22:11 | 47.13737 | 8.51795 | 38975 ft | 434 kts | 176° |
| 2026-05-06 22:11 | 47.07721 | 8.52673 | 38981 ft | 435 kts | 176° |
| 2026-05-06 22:12 | 47.01706 | 8.53540 | 38985 ft | 434 kts | 177° |
| 2026-05-06 22:12 | 46.95690 | 8.54408 | 38988 ft | 434 kts | 177° |
| 2026-05-06 22:13 | 46.89673 | 8.55267 | 38992 ft | 434 kts | 177° |
| 2026-05-06 22:13 | 46.83663 | 8.56124 | 38987 ft | 433 kts | 177° |
| 2026-05-06 22:14 | 46.77652 | 8.56993 | 38985 ft | 434 kts | 178° |
| 2026-05-06 22:14 | 46.71646 | 8.57856 | 38985 ft | 434 kts | 178° |
| 2026-05-06 22:15 | 46.65638 | 8.58715 | 38987 ft | 434 kts | 178° |
| 2026-05-06 22:15 | 46.59633 | 8.59576 | 39001 ft | 433 kts | 178° |
| 2026-05-06 22:16 | 46.53633 | 8.60420 | 39007 ft | 432 kts | 178° |
| 2026-05-06 22:16 | 46.47687 | 8.61254 | 39002 ft | 431 kts | 178° |
| 2026-05-06 22:17 | 46.41676 | 8.62109 | 39005 ft | 432 kts | 178° |
| 2026-05-06 22:17 | 46.38680 | 8.62537 | 38628 ft | 435 kts | 178° |
| 2026-05-06 22:17 | 46.35625 | 8.62967 | 37326 ft | 445 kts | 178° |
| 2026-05-06 22:18 | 46.32577 | 8.63393 | 36308 ft | 447 kts | 178° |
| 2026-05-06 22:18 | 46.29488 | 8.63830 | 35405 ft | 445 kts | 178° |
| 2026-05-06 22:18 | 46.26423 | 8.64262 | 34534 ft | 440 kts | 179° |
| 2026-05-06 22:18 | 46.23383 | 8.64689 | 33563 ft | 436 kts | 179° |
| 2026-05-06 22:19 | 46.20376 | 8.65111 | 32515 ft | 433 kts | 179° |
| 2026-05-06 22:19 | 46.17382 | 8.65532 | 31391 ft | 432 kts | 179° |
| 2026-05-06 22:19 | 46.14395 | 8.66035 | 30231 ft | 435 kts | 174° |
| 2026-05-06 22:19 | 46.11479 | 8.67310 | 28860 ft | 444 kts | 162° |
| 2026-05-06 22:20 | 46.08784 | 8.69559 | 27551 ft | 449 kts | 148° |
| 2026-05-06 22:20 | 46.06584 | 8.72622 | 27115 ft | 429 kts | 138° |
| 2026-05-06 22:20 | 46.04651 | 8.75729 | 26591 ft | 406 kts | 139° |
| 2026-05-06 22:20 | 46.02772 | 8.78675 | 25722 ft | 395 kts | 139° |
| 2026-05-06 22:21 | 46.00917 | 8.81532 | 24999 ft | 385 kts | 139° |
| 2026-05-06 22:21 | 45.99097 | 8.84315 | 24551 ft | 381 kts | 139° |
| 2026-05-06 22:21 | 45.97286 | 8.87081 | 24068 ft | 379 kts | 138° |
| 2026-05-06 22:21 | 45.95496 | 8.89832 | 23580 ft | 376 kts | 137° |
| 2026-05-06 22:22 | 45.93724 | 8.92574 | 23030 ft | 373 kts | 137° |
| 2026-05-06 22:22 | 45.91971 | 8.95298 | 22542 ft | 369 kts | 137° |
| 2026-05-06 22:22 | 45.90237 | 8.97992 | 22063 ft | 365 kts | 137° |
| 2026-05-06 22:22 | 45.88539 | 9.00628 | 21591 ft | 363 kts | 137° |
| 2026-05-06 22:23 | 45.86835 | 9.03272 | 21121 ft | 359 kts | 137° |
| 2026-05-06 22:23 | 45.85118 | 9.05929 | 20652 ft | 357 kts | 137° |
| 2026-05-06 22:23 | 45.83438 | 9.08524 | 20183 ft | 354 kts | 137° |
| 2026-05-06 22:23 | 45.81766 | 9.11104 | 19738 ft | 352 kts | 137° |
| 2026-05-06 22:24 | 45.80127 | 9.13629 | 19290 ft | 350 kts | 137° |
| 2026-05-06 22:24 | 45.78468 | 9.16181 | 18841 ft | 349 kts | 137° |
| 2026-05-06 22:24 | 45.76816 | 9.18717 | 18400 ft | 347 kts | 137° |
| 2026-05-06 22:24 | 45.75172 | 9.21244 | 17921 ft | 346 kts | 137° |
| 2026-05-06 22:25 | 45.73542 | 9.23754 | 17474 ft | 343 kts | 137° |
| 2026-05-06 22:25 | 45.71925 | 9.26246 | 17054 ft | 340 kts | 137° |
| 2026-05-06 22:25 | 45.70318 | 9.28714 | 16630 ft | 338 kts | 137° |
| 2026-05-06 22:25 | 45.68720 | 9.31164 | 16225 ft | 335 kts | 137° |
| 2026-05-06 22:26 | 45.67133 | 9.33592 | 15816 ft | 333 kts | 137° |
| 2026-05-06 22:26 | 45.65553 | 9.36006 | 15413 ft | 331 kts | 136° |
| 2026-05-06 22:26 | 45.63982 | 9.38404 | 15136 ft | 330 kts | 136° |
| 2026-05-06 22:26 | 45.62420 | 9.40791 | 14745 ft | 328 kts | 136° |
| 2026-05-06 22:27 | 45.60865 | 9.43168 | 14345 ft | 326 kts | 137° |
| 2026-05-06 22:27 | 45.59318 | 9.45526 | 13960 ft | 325 kts | 137° |
| 2026-05-06 22:27 | 45.57740 | 9.47801 | 13644 ft | 316 kts | 143° |
| 2026-05-06 22:27 | 45.55968 | 9.49526 | 13471 ft | 303 kts | 156° |
| 2026-05-06 22:28 | 45.54042 | 9.50631 | 13109 ft | 296 kts | 168° |
| 2026-05-06 22:28 | 45.52031 | 9.51116 | 12721 ft | 291 kts | 179° |
| 2026-05-06 22:28 | 45.50016 | 9.51307 | 12319 ft | 290 kts | 179° |
| 2026-05-06 22:28 | 45.48005 | 9.51507 | 11929 ft | 289 kts | 178° |
| 2026-05-06 22:29 | 45.46000 | 9.51713 | 11538 ft | 288 kts | 178° |
| 2026-05-06 22:29 | 45.44007 | 9.51921 | 11136 ft | 287 kts | 178° |
| 2026-05-06 22:29 | 45.42047 | 9.52126 | 10742 ft | 286 kts | 178° |
| 2026-05-06 22:29 | 45.40071 | 9.52330 | 10348 ft | 284 kts | 178° |
| 2026-05-06 22:30 | 45.38095 | 9.52534 | 9945 ft | 283 kts | 178° |
| 2026-05-06 22:30 | 45.36131 | 9.52737 | 9496 ft | 283 kts | 178° |
| 2026-05-06 22:30 | 45.34173 | 9.52935 | 9061 ft | 281 kts | 178° |
| 2026-05-06 22:30 | 45.32228 | 9.53135 | 8643 ft | 279 kts | 178° |
| 2026-05-06 22:31 | 45.30299 | 9.53334 | 8220 ft | 277 kts | 178° |
| 2026-05-06 22:31 | 45.28381 | 9.53531 | 7792 ft | 275 kts | 178° |
| 2026-05-06 22:31 | 45.26482 | 9.53613 | 7371 ft | 271 kts | 189° |
| 2026-05-06 22:31 | 45.24727 | 9.52764 | 6969 ft | 265 kts | 213° |
| 2026-05-06 22:32 | 45.23418 | 9.51003 | 6332 ft | 259 kts | 237° |
| 2026-05-06 22:32 | 45.22758 | 9.48639 | 5561 ft | 260 kts | 261° |
| 2026-05-06 22:32 | 45.22736 | 9.46124 | 5099 ft | 260 kts | 270° |
| 2026-05-06 22:32 | 45.22774 | 9.43570 | 4712 ft | 252 kts | 269° |
| 2026-05-06 22:33 | 45.22802 | 9.41205 | 4586 ft | 229 kts | 270° |
| 2026-05-06 22:33 | 45.22823 | 9.39037 | 4454 ft | 211 kts | 269° |
| 2026-05-06 22:33 | 45.22842 | 9.37039 | 4307 ft | 195 kts | 269° |
| 2026-05-06 22:33 | 45.22859 | 9.35122 | 4184 ft | 193 kts | 270° |
| 2026-05-06 22:34 | 45.23054 | 9.33253 | 4046 ft | 192 kts | 287° |
| 2026-05-06 22:34 | 45.23695 | 9.31590 | 3925 ft | 194 kts | 308° |
| 2026-05-06 22:34 | 45.24698 | 9.30368 | 3870 ft | 185 kts | 328° |
| 2026-05-06 22:34 | 45.25865 | 9.29744 | 3763 ft | 176 kts | 348° |
| 2026-05-06 22:35 | 45.27066 | 9.29581 | 3562 ft | 171 kts | 354° |
| 2026-05-06 22:35 | 45.28244 | 9.29455 | 3351 ft | 169 kts | 354° |
| 2026-05-06 22:35 | 45.29408 | 9.29330 | 3141 ft | 167 kts | 355° |
| 2026-05-06 22:35 | 45.30561 | 9.29206 | 2925 ft | 166 kts | 355° |
| 2026-05-06 22:36 | 45.31707 | 9.29083 | 2700 ft | 164 kts | 356° |
| 2026-05-06 22:36 | 45.32826 | 9.28963 | 2486 ft | 159 kts | 357° |
| 2026-05-06 22:36 | 45.33904 | 9.28847 | 2275 ft | 151 kts | 358° |
| 2026-05-06 22:36 | 45.34926 | 9.28736 | 2088 ft | 147 kts | 0° |
| 2026-05-06 22:37 | 45.35940 | 9.28628 | 1884 ft | 145 kts | 359° |
| 2026-05-06 22:37 | 45.36940 | 9.28520 | 1688 ft | 143 kts | 360° |
| 2026-05-06 22:37 | 45.37932 | 9.28414 | 1498 ft | 142 kts | 1° |
| 2026-05-06 22:37 | 45.38917 | 9.28309 | 1303 ft | 142 kts | 360° |
| 2026-05-06 22:38 | 45.39895 | 9.28203 | 1135 ft | 139 kts | 359° |
| 2026-05-06 22:38 | 45.40838 | 9.28101 | 927 ft | 134 kts | 357° |
| 2026-05-06 22:38 | 45.41761 | 9.28002 | 744 ft | 131 kts | 357° |
| 2026-05-06 22:38 | 45.42662 | 9.27905 | 555 ft | 128 kts | 357° |
| 2026-05-06 22:39 | 45.43256 | 9.27844 | 456 ft | 129 kts | 356° |
| 2026-05-06 22:39 | 45.44139 | 9.27750 | 369 ft | 121 kts | 355° |
| 2026-05-06 22:39 | 45.44823 | 9.27674 | 365 ft | 65 kts | 355° |
| 2026-05-06 22:39 | 45.45072 | 9.27647 | 365 ft | 27 kts | 356° |
| 2026-05-06 22:40 | 45.45261 | 9.27638 | 365 ft | 26 kts | 8° |
| 2026-05-06 22:40 | 45.45388 | 9.27712 | 365 ft | 20 kts | 25° |
| 2026-05-06 22:40 | 45.45477 | 9.27805 | 368 ft | 15 kts | 21° |
| 2026-05-06 22:40 | 45.45589 | 9.27816 | 365 ft | 15 kts | 1° |
| 2026-05-06 22:41 | 45.45773 | 9.27839 | 365 ft | 7 kts | 64° |
| 2026-05-06 22:41 | 45.45775 | 9.27894 | 365 ft | 0 kts | 91° |
| 2026-05-06 22:41 | 45.45775 | 9.27895 | 365 ft | 0 kts | 91° |